Time;durP1;ratioP1;P1;durP2;ratioP2;P2;SDS_P1;SDS_P2;PMS_P1;PMS_P2;Temp;Humidity;BMP_temperature;BMP_pressure;BME280_temperature;BME280_humidity;BME280_pressure;Samples;Min_cycle;Max_cycle;Signal;HPM_P1;HPM_P2
2021/11/18 00:00:28;;;;;;;27.30;6.83;;;;;;;14.38;60.81;101272.69;4971382;28;20185;-69
2021/11/18 00:02:54;;;;;;;19.70;7.20;;;;;;;14.15;61.28;101267.88;4971302;28;20679;-69
2021/11/18 00:05:23;;;;;;;18.23;6.60;;;;;;;13.66;62.17;101274.34;4972735;28;20190;-69
2021/11/18 00:07:50;;;;;;;15.20;6.20;;;;;;;14.02;61.33;101278.47;4971422;28;20182;-69
2021/11/18 00:10:21;;;;;;;29.70;7.10;;;;;;;14.07;60.98;101271.84;4971533;28;20166;-69
2021/11/18 00:12:47;;;;;;;14.40;5.90;;;;;;;13.55;61.79;101292.00;4955432;28;20241;-69
2021/11/18 00:15:14;;;;;;;14.13;6.07;;;;;;;13.79;61.64;101271.81;4971246;28;20228;-70
2021/11/18 00:17:39;;;;;;;21.77;6.03;;;;;;;13.33;62.10;101271.78;4971221;28;20201;-72
2021/11/18 00:20:07;;;;;;;20.77;5.53;;;;;;;13.85;61.24;101281.31;4972581;28;20640;-70
2021/11/18 00:22:32;;;;;;;15.60;6.53;;;;;;;13.76;61.09;101285.41;4971190;28;20209;-70
2021/11/18 00:24:57;;;;;;;14.63;5.23;;;;;;;13.70;60.96;101283.91;4971277;28;20202;-71
2021/11/18 00:27:23;;;;;;;15.33;5.40;;;;;;;13.77;61.12;101271.03;4971227;28;20213;-70
2021/11/18 00:29:49;;;;;;;21.93;6.00;;;;;;;13.41;61.72;101268.69;4971148;28;20489;-70
2021/11/18 00:32:14;;;;;;;18.73;6.03;;;;;;;13.39;62.06;101286.69;4955056;28;20666;-69
2021/11/18 00:34:40;;;;;;;9.97;4.53;;;;;;;13.65;61.21;101280.66;4972382;28;20194;-70
2021/11/18 00:37:05;;;;;;;15.27;5.47;;;;;;;13.40;61.47;101273.19;4972472;28;20182;-70
2021/11/18 00:39:30;;;;;;;18.13;5.87;;;;;;;13.72;61.05;101259.69;4972542;28;20178;-70
2021/11/18 00:41:56;;;;;;;18.30;5.33;;;;;;;13.63;61.29;101270.97;4972386;28;20182;-70
2021/11/18 00:44:21;;;;;;;12.13;4.87;;;;;;;13.91;60.62;101271.06;4972018;28;20198;-70
2021/11/18 00:46:46;;;;;;;16.97;5.33;;;;;;;13.33;61.90;101274.47;4972091;28;20170;-71
2021/11/18 00:49:11;;;;;;;12.43;5.30;;;;;;;13.64;61.29;101278.06;4972608;28;20182;-69
2021/11/18 00:51:39;;;;;;;15.70;5.13;;;;;;;13.66;61.13;101281.50;4972212;28;20640;-70
2021/11/18 00:54:05;;;;;;;16.43;5.60;;;;;;;13.55;61.81;101279.47;4970763;28;20543;-70
2021/11/18 00:56:31;;;;;;;15.97;5.37;;;;;;;13.81;61.11;101277.94;4971023;28;20304;-70
2021/11/18 00:58:57;;;;;;;17.87;5.37;;;;;;;13.75;61.57;101276.50;4972174;28;20171;-70
2021/11/18 01:01:25;;;;;;;19.97;5.73;;;;;;;14.16;60.62;101286.56;4971191;28;20647;-70
2021/11/18 01:03:51;;;;;;;15.83;4.80;;;;;;;13.69;61.44;101286.69;4971873;28;20213;-70
2021/11/18 01:06:16;;;;;;;18.27;5.83;;;;;;;13.45;62.03;101287.19;4970517;28;20232;-70
2021/11/18 01:08:42;;;;;;;17.80;5.40;;;;;;;13.98;60.78;101293.88;4971809;28;20210;-70
2021/11/18 01:11:14;;;;;;;13.17;4.40;;;;;;;13.54;61.14;101304.56;4971820;28;20182;-70
2021/11/18 01:13:40;;;;;;;16.00;4.83;;;;;;;13.73;60.93;101298.97;4970602;28;20200;-69
2021/11/18 01:16:07;;;;;;;20.30;5.03;;;;;;;13.90;60.58;101298.00;4969679;28;20241;-70
2021/11/18 01:18:33;;;;;;;13.53;4.00;;;;;;;14.15;60.35;101310.81;4971667;28;20192;-70
2021/11/18 01:21:00;;;;;;;15.77;4.67;;;;;;;13.63;60.92;101311.19;4971886;28;20181;-70
2021/11/18 01:23:29;;;;;;;23.33;5.10;;;;;;;13.55;61.57;101314.34;4970330;28;20198;-70
2021/11/18 01:25:54;;;;;;;20.00;4.43;;;;;;;13.64;60.91;101310.25;4970499;28;20271;-70
2021/11/18 01:28:19;;;;;;;14.47;4.20;;;;;;;13.68;60.73;101303.75;4970453;28;20174;-70
2021/11/18 01:30:45;;;;;;;13.87;3.97;;;;;;;13.64;60.79;101295.00;4971097;28;20178;-71
2021/11/18 01:33:14;;;;;;;17.37;4.80;;;;;;;13.33;61.58;101298.59;4971765;28;20563;-71
2021/11/18 01:35:40;;;;;;;14.93;3.80;;;;;;;13.41;61.66;101319.63;4971476;28;20217;-68
2021/11/18 01:38:06;;;;;;;17.47;4.33;;;;;;;13.54;61.00;101325.16;4972543;28;20186;-70
2021/11/18 01:40:37;;;;;;;18.77;3.90;;;;;;;13.48;61.13;101315.63;4973069;28;20201;-70
2021/11/18 01:43:04;;;;;;;14.00;3.73;;;;;;;13.69;60.88;101319.75;4973363;28;20739;-70
2021/11/18 01:45:31;;;;;;;19.73;3.80;;;;;;;13.60;60.99;101322.09;4970356;28;20194;-69
2021/11/18 01:47:57;;;;;;;13.57;3.20;;;;;;;13.02;61.58;101320.03;4970049;28;20178;-70
2021/11/18 01:50:25;;;;;;;15.00;3.93;;;;;;;13.77;60.46;101312.13;4970137;28;20182;-70
2021/11/18 01:52:51;;;;;;;14.40;3.43;;;;;;;13.66;60.84;101319.94;4969886;28;20186;-70
2021/11/18 01:55:20;;;;;;;10.90;3.10;;;;;;;13.88;60.39;101334.78;4971653;28;20584;-70
2021/11/18 01:57:46;;;;;;;12.43;3.43;;;;;;;13.25;61.06;101346.41;4971088;28;20239;-69
2021/11/18 02:00:17;;;;;;;11.83;3.47;;;;;;;13.84;60.27;101326.06;4970325;28;20184;-69
2021/11/18 02:02:43;;;;;;;14.83;3.17;;;;;;;13.29;61.28;101323.84;4969920;28;20210;-70
2021/11/18 02:05:22;;;;;;;11.70;3.30;;;;;;;13.55;60.93;101332.25;4971331;28;20197;-70
2021/11/18 02:07:48;;;;;;;13.73;3.70;;;;;;;13.28;60.93;101330.16;4970265;28;20163;-70
2021/11/18 02:10:22;;;;;;;15.50;2.90;;;;;;;13.57;60.81;101335.69;4970181;28;20540;-70
2021/11/18 02:12:48;;;;;;;11.13;3.27;;;;;;;13.74;60.31;101324.84;4969993;28;20253;-69
2021/11/18 02:15:35;;;;;;;15.90;3.50;;;;;;;13.74;60.33;101317.66;4991549;23;20718;-64
2021/11/18 02:18:02;;;;;;;11.33;3.20;;;;;;;13.40;61.48;101323.25;4952019;28;20226;-65
2021/11/18 02:20:31;;;;;;;10.60;2.90;;;;;;;13.63;60.81;101319.25;4952173;28;20190;-66
2021/11/18 02:22:57;;;;;;;15.10;2.67;;;;;;;13.32;60.80;101312.09;4951780;28;20242;-66
2021/11/18 02:25:30;;;;;;;9.20;2.43;;;;;;;13.79;60.65;101314.72;4951917;28;20226;-66
2021/11/18 02:27:56;;;;;;;17.10;2.43;;;;;;;13.60;60.47;101309.56;4954568;28;20624;-66
2021/11/18 02:30:23;;;;;;;13.13;2.60;;;;;;;13.67;60.82;101313.59;4955380;28;20320;-66
2021/11/18 02:32:48;;;;;;;12.20;2.67;;;;;;;13.19;61.07;101298.53;4955139;28;20175;-66
2021/11/18 02:35:21;;;;;;;14.60;2.93;;;;;;;13.64;60.85;101304.88;4954819;28;20306;-66
2021/11/18 02:37:46;;;;;;;8.70;2.90;;;;;;;13.17;61.28;101313.81;4954011;29;20191;-66
2021/11/18 02:40:12;;;;;;;16.67;3.20;;;;;;;13.34;61.33;101319.09;4937578;29;20217;-66
2021/11/18 02:42:39;;;;;;;13.33;3.27;;;;;;;13.23;61.75;101317.97;4937520;28;20691;-65
2021/11/18 02:45:09;;;;;;;12.60;2.90;;;;;;;13.73;60.54;101325.78;4953408;28;20677;-67
2021/11/18 02:47:34;;;;;;;7.60;2.33;;;;;;;13.04;61.44;101326.16;4953688;29;20179;-65
2021/11/18 02:49:59;;;;;;;12.23;2.73;;;;;;;13.34;61.08;101328.94;4955424;28;20269;-65
2021/11/18 02:52:29;;;;;;;14.00;2.63;;;;;;;13.54;61.53;101335.88;4953538;28;20187;-66
2021/11/18 02:54:56;;;;;;;9.33;2.50;;;;;;;13.51;60.81;101331.56;4953451;28;20184;-65
2021/11/18 02:57:21;;;;;;;13.73;3.10;;;;;;;12.90;61.92;101342.09;4957247;28;20228;-65
2021/11/18 02:59:47;;;;;;;10.57;2.47;;;;;;;12.89;62.62;101343.91;4953730;29;20274;-66
2021/11/18 03:02:12;;;;;;;10.50;2.60;;;;;;;13.22;61.24;101330.50;4954468;28;20179;-66
2021/11/18 03:04:38;;;;;;;16.00;2.93;;;;;;;13.10;62.12;101349.94;4954670;28;20183;-66
2021/11/18 03:07:03;;;;;;;12.20;2.50;;;;;;;13.10;61.75;101333.84;4954249;28;20209;-66
2021/11/18 03:09:29;;;;;;;8.10;2.60;;;;;;;13.19;61.62;101328.00;4954511;28;20571;-66
2021/11/18 03:11:55;;;;;;;16.13;2.70;;;;;;;13.45;60.86;101322.03;4953161;29;20598;-66
2021/11/18 03:14:21;;;;;;;11.80;2.80;;;;;;;13.21;61.83;101320.75;4953136;29;20257;-66
2021/11/18 03:16:48;;;;;;;11.27;2.17;;;;;;;13.36;61.15;101314.50;4954039;28;20265;-67
2021/11/18 03:19:13;;;;;;;11.93;2.80;;;;;;;13.02;62.00;101342.31;4936970;29;20183;-66
2021/11/18 03:21:39;;;;;;;11.43;2.63;;;;;;;13.01;61.93;101321.84;4953207;29;20185;-66
2021/11/18 03:24:04;;;;;;;12.23;2.33;;;;;;;13.52;61.17;101335.09;4954109;29;20249;-66
2021/11/18 03:26:31;;;;;;;10.00;3.00;;;;;;;13.11;61.62;101333.75;4952964;28;20207;-66
2021/11/18 03:28:56;;;;;;;19.47;2.97;;;;;;;13.63;60.66;101320.09;4953884;28;20202;-66
2021/11/18 03:31:22;;;;;;;11.80;2.20;;;;;;;13.44;60.72;101325.69;4954057;28;20665;-66
2021/11/18 03:33:56;;;;;;;10.77;3.17;;;;;;;13.13;62.12;101355.13;4953738;28;20175;-65
2021/11/18 03:36:24;;;;;;;10.47;2.50;;;;;;;13.67;61.29;101355.66;4954148;28;20205;-65
2021/11/18 03:38:51;;;;;;;13.77;2.70;;;;;;;12.93;62.40;101349.97;4952068;28;20664;-65
2021/11/18 03:41:17;;;;;;;16.63;2.70;;;;;;;12.91;62.67;101341.16;4953890;28;20175;-65
2021/11/18 03:43:49;;;;;;;12.50;2.60;;;;;;;13.35;61.90;101347.63;4953812;28;20203;-65
2021/11/18 03:46:15;;;;;;;11.63;2.70;;;;;;;13.06;62.61;101348.38;4953908;28;20229;-65
2021/11/18 03:48:41;;;;;;;12.77;2.63;;;;;;;13.28;60.98;101343.56;4953731;28;20687;-65
2021/11/18 03:51:08;;;;;;;14.00;3.70;;;;;;;13.62;61.26;101352.38;4952688;29;20187;-64
2021/11/18 03:53:34;;;;;;;10.00;2.37;;;;;;;13.09;62.62;101353.56;4953981;28;20597;-66
2021/11/18 03:56:05;;;;;;;9.40;2.93;;;;;;;13.69;61.24;101356.44;4953938;28;20203;-66
2021/11/18 03:58:30;;;;;;;10.10;2.47;;;;;;;12.92;62.14;101353.59;4954196;28;20177;-67
2021/11/18 04:00:56;;;;;;;16.10;3.20;;;;;;;13.26;61.66;101366.06;4954157;28;20548;-67
2021/11/18 04:03:21;;;;;;;17.23;2.40;;;;;;;13.85;60.68;101376.09;4954077;28;20703;-66
2021/11/18 04:05:47;;;;;;;13.10;3.00;;;;;;;13.58;61.56;101367.78;4954311;28;20226;-67
2021/11/18 04:08:12;;;;;;;11.50;2.20;;;;;;;13.96;61.50;101379.00;4954700;28;20191;-66
2021/11/18 04:10:39;;;;;;;11.57;3.03;;;;;;;14.37;60.67;101376.53;4953969;28;20183;-67
2021/11/18 04:13:06;;;;;;;11.03;2.73;;;;;;;13.52;63.00;101381.56;4954333;28;20175;-66
2021/11/18 04:15:31;;;;;;;10.93;2.90;;;;;;;13.47;63.23;101374.72;4953466;28;20631;-66
2021/11/18 04:17:57;;;;;;;13.07;2.87;;;;;;;13.72;62.74;101359.81;4953509;28;20183;-67
2021/11/18 04:20:23;;;;;;;13.80;3.13;;;;;;;13.76;62.73;101363.22;4953598;28;20187;-66
2021/11/18 04:22:50;;;;;;;14.70;3.37;;;;;;;13.76;63.24;101373.94;4953473;28;20704;-66
2021/11/18 04:25:18;;;;;;;17.07;3.27;;;;;;;13.48;63.63;101371.94;4952518;28;20210;-67
2021/11/18 04:27:44;;;;;;;14.13;2.57;;;;;;;13.09;64.08;101378.53;4953692;29;20198;-67
2021/11/18 04:30:12;;;;;;;11.07;3.00;;;;;;;13.97;62.71;101361.06;4953581;28;20261;-67
2021/11/18 04:32:37;;;;;;;11.67;2.60;;;;;;;13.29;64.16;101361.38;4953002;29;20182;-67
2021/11/18 04:35:03;;;;;;;12.20;3.13;;;;;;;14.03;63.48;101377.69;4937010;28;20504;-67
2021/11/18 04:37:29;;;;;;;10.83;2.73;;;;;;;13.23;64.50;101379.63;4953863;28;20207;-66
2021/11/18 04:39:54;;;;;;;11.40;3.10;;;;;;;13.30;64.77;101363.09;4952462;29;20671;-65
2021/11/18 04:42:20;;;;;;;16.07;3.30;;;;;;;13.11;65.68;101368.59;4953642;28;20258;-66
2021/11/18 04:44:46;;;;;;;14.93;2.97;;;;;;;12.99;65.42;101376.44;4953676;28;20667;-67
2021/11/18 04:47:12;;;;;;;13.03;3.63;;;;;;;13.21;65.31;101371.66;4953017;28;20671;-66
2021/11/18 04:49:40;;;;;;;18.27;3.10;;;;;;;13.34;65.39;101378.06;4952276;28;20179;-65
2021/11/18 04:52:07;;;;;;;14.70;2.93;;;;;;;13.12;65.15;101372.16;4951730;29;20192;-66
2021/11/18 04:54:33;;;;;;;16.43;2.87;;;;;;;13.44;64.92;101368.59;4935776;29;20182;-66
2021/11/18 04:56:58;;;;;;;12.83;3.67;;;;;;;13.27;64.77;101365.09;4953467;28;20196;-66
2021/11/18 04:59:23;;;;;;;12.70;3.00;;;;;;;13.12;65.20;101367.66;4953097;29;20179;-66
2021/11/18 05:01:48;;;;;;;14.27;2.90;;;;;;;13.31;64.91;101372.00;4953224;29;20186;-66
2021/11/18 05:04:14;;;;;;;19.67;3.10;;;;;;;13.44;64.59;101373.94;4952567;29;20207;-66
2021/11/18 05:06:40;;;;;;;16.50;3.50;;;;;;;13.56;64.57;101366.16;4952677;28;20715;-66
2021/11/18 05:09:07;;;;;;;19.97;3.33;;;;;;;13.95;64.10;101382.63;4953025;29;20274;-67
2021/11/18 05:11:32;;;;;;;20.40;3.13;;;;;;;13.91;64.14;101389.13;4952847;28;20174;-67
2021/11/18 05:13:58;;;;;;;15.40;3.70;;;;;;;12.96;65.55;101382.81;4952836;28;20240;-66
2021/11/18 05:16:23;;;;;;;15.83;3.60;;;;;;;13.72;64.13;101386.63;4952580;28;20217;-66
2021/11/18 05:18:48;;;;;;;16.27;2.90;;;;;;;13.52;64.34;101373.50;4952663;28;20648;-66
2021/11/18 05:21:16;;;;;;;16.17;3.27;;;;;;;13.75;63.98;101380.22;4951620;29;20193;-66
2021/11/18 05:23:42;;;;;;;15.93;3.03;;;;;;;13.49;64.67;101378.19;4952603;28;20568;-67
2021/11/18 05:26:09;;;;;;;12.60;3.30;;;;;;;13.68;64.90;101387.75;4952737;28;20197;-67
2021/11/18 05:28:35;;;;;;;8.07;2.73;;;;;;;13.43;65.21;101388.31;4952523;28;20183;-67
2021/11/18 05:31:01;;;;;;;14.27;3.23;;;;;;;13.69;63.99;101380.59;4952892;28;20186;-67
2021/11/18 05:33:28;;;;;;;12.43;3.60;;;;;;;13.50;65.11;101393.31;4953001;28;20186;-69
2021/11/18 05:35:55;;;;;;;15.00;3.93;;;;;;;13.35;65.75;101401.25;4951431;28;20197;-67
2021/11/18 05:38:20;;;;;;;21.47;3.80;;;;;;;13.57;64.90;101400.94;4951488;29;20175;-67
2021/11/18 05:40:46;;;;;;;15.17;3.87;;;;;;;13.47;65.30;101396.19;4952573;28;20179;-68
2021/11/18 05:43:12;;;;;;;18.60;3.87;;;;;;;13.19;66.05;101403.06;4935710;29;20199;-68
2021/11/18 05:45:37;;;;;;;14.60;3.20;;;;;;;12.84;66.56;101403.09;4935533;29;20199;-68
2021/11/18 05:48:04;;;;;;;16.23;4.13;;;;;;;12.83;67.55;101421.94;4951634;29;20205;-67
2021/11/18 05:50:29;;;;;;;22.10;4.40;;;;;;;13.25;65.49;101405.41;4952337;28;20193;-68
2021/11/18 05:52:55;;;;;;;17.40;4.00;;;;;;;13.61;65.22;101418.56;4950880;29;20175;-67
2021/11/18 05:55:24;;;;;;;16.93;4.27;;;;;;;13.25;66.45;101397.34;4950722;28;20204;-68
2021/11/18 05:57:50;;;;;;;22.27;4.00;;;;;;;13.30;65.43;101408.69;4952124;28;20258;-68
2021/11/18 06:00:19;;;;;;;17.00;3.97;;;;;;;13.05;66.58;101409.16;4952030;28;20179;-68
2021/11/18 06:02:45;;;;;;;16.10;5.30;;;;;;;13.44;65.93;101407.94;4954636;28;20208;-68
2021/11/18 06:05:10;;;;;;;27.43;4.50;;;;;;;13.43;65.27;101404.41;4954011;28;20285;-69
2021/11/18 06:07:37;;;;;;;22.20;4.83;;;;;;;13.07;65.82;101409.94;4954114;29;20175;-69
2021/11/18 06:10:02;;;;;;;28.30;5.73;;;;;;;13.02;66.87;101419.16;4954056;29;20175;-70
2021/11/18 06:12:28;;;;;;;18.43;5.17;;;;;;;12.52;66.62;101412.81;4955382;28;20248;-70
2021/11/18 06:14:53;;;;;;;16.53;4.80;;;;;;;12.71;67.04;101412.75;4954917;28;20175;-69
2021/11/18 06:17:18;;;;;;;17.90;5.37;;;;;;;12.60;67.19;101422.28;4954684;29;20174;-69
2021/11/18 06:19:44;;;;;;;27.47;5.70;;;;;;;13.09;66.61;101420.56;4955737;28;20616;-69
2021/11/18 06:22:10;;;;;;;28.23;6.03;;;;;;;12.88;66.30;101425.25;4954055;29;20175;-69
2021/11/18 06:24:36;;;;;;;22.73;5.73;;;;;;;13.09;66.34;101432.16;4954614;29;20222;-70
2021/11/18 06:27:01;;;;;;;23.17;6.13;;;;;;;12.71;66.65;101410.06;4954163;28;20568;-70
2021/11/18 06:29:30;;;;;;;20.03;5.93;;;;;;;12.81;66.58;101405.09;4953932;29;20228;-69
2021/11/18 06:31:56;;;;;;;28.40;6.57;;;;;;;12.77;67.13;101425.81;4953866;29;20647;-68
2021/11/18 06:34:22;;;;;;;20.77;6.47;;;;;;;13.15;65.98;101425.59;4954162;28;20190;-70
2021/11/18 06:36:48;;;;;;;25.20;6.53;;;;;;;13.06;66.76;101426.09;4954442;28;20191;-69
2021/11/18 06:39:14;;;;;;;27.43;7.27;;;;;;;13.35;66.01;101443.28;4954972;28;20183;-70
2021/11/18 06:41:40;;;;;;;29.53;7.40;;;;;;;13.54;65.40;101443.16;4954806;28;20232;-70
2021/11/18 06:44:07;;;;;;;33.77;7.50;;;;;;;13.45;65.56;101437.34;4953602;29;20252;-70
2021/11/18 06:46:32;;;;;;;30.30;7.50;;;;;;;13.52;65.11;101448.59;4955180;28;20233;-70
2021/11/18 06:48:58;;;;;;;27.17;7.67;;;;;;;13.54;66.13;101437.78;4953922;29;20175;-70
2021/11/18 06:51:24;;;;;;;27.10;7.10;;;;;;;14.08;64.38;101439.13;4954701;29;20540;-69
2021/11/18 06:53:51;;;;;;;28.93;8.70;;;;;;;13.39;66.75;101443.06;4953667;29;20262;-70
2021/11/18 06:56:17;;;;;;;24.77;8.20;;;;;;;13.75;65.54;101449.97;4953369;28;20195;-69
2021/11/18 06:58:42;;;;;;;24.33;7.03;;;;;;;13.28;66.55;101456.16;4954989;28;20186;-70
2021/11/18 07:01:08;;;;;;;25.77;7.80;;;;;;;13.60;66.06;101448.16;4954741;28;20595;-70
2021/11/18 07:03:39;;;;;;;24.83;7.40;;;;;;;13.59;65.92;101458.03;4953762;29;20199;-71
2021/11/18 07:06:04;;;;;;;22.57;6.70;;;;;;;13.56;66.46;101479.66;4953629;28;20660;-71
2021/11/18 07:08:29;;;;;;;23.57;7.30;;;;;;;13.69;65.85;101461.06;4955230;29;20186;-70
2021/11/18 07:10:55;;;;;;;27.00;6.87;;;;;;;13.30;66.16;101473.03;4954726;28;20176;-71
2021/11/18 07:13:23;;;;;;;21.90;6.43;;;;;;;14.04;65.52;101484.09;4953889;28;20172;-70
2021/11/18 07:15:51;;;;;;;26.17;6.90;;;;;;;14.04;65.09;101476.03;4954219;28;20584;-70
2021/11/18 07:18:16;;;;;;;27.53;6.00;;;;;;;14.05;64.46;101466.16;4953138;29;20175;-69
2021/11/18 07:20:43;;;;;;;18.87;5.90;;;;;;;14.02;64.36;101471.69;4954856;29;20183;-69
2021/11/18 07:23:09;;;;;;;21.93;6.23;;;;;;;14.44;64.05;101487.19;4954410;28;20572;-70
2021/11/18 07:25:35;;;;;;;25.80;5.67;;;;;;;14.24;64.10;101492.81;4954225;28;20199;-70
2021/11/18 07:28:01;;;;;;;15.73;4.83;;;;;;;14.07;64.65;101491.97;4954411;28;20254;-71
2021/11/18 07:30:27;;;;;;;23.63;5.27;;;;;;;14.24;64.33;101492.81;4954488;28;20198;-70
2021/11/18 07:32:52;;;;;;;26.40;5.13;;;;;;;14.25;64.02;101475.75;4952923;29;20660;-69
2021/11/18 07:35:18;;;;;;;17.67;4.90;;;;;;;14.39;63.56;101490.09;4953078;28;20195;-70
2021/11/18 07:37:44;;;;;;;16.93;4.67;;;;;;;14.35;62.90;101493.91;4954837;28;20258;-69
2021/11/18 07:40:12;;;;;;;14.33;4.80;;;;;;;14.67;63.14;101489.38;4953490;29;20186;-69
2021/11/18 07:42:38;;;;;;;19.83;4.43;;;;;;;14.50;63.30;101499.41;4952529;29;20692;-69
2021/11/18 07:45:05;;;;;;;17.63;4.33;;;;;;;14.39;63.21;101497.28;4954140;28;20234;-69
2021/11/18 07:47:30;;;;;;;17.20;4.70;;;;;;;14.18;63.18;101502.09;4954105;28;20226;-70
2021/11/18 07:49:56;;;;;;;18.57;4.73;;;;;;;14.35;63.29;101519.91;4953995;28;20183;-69
2021/11/18 07:52:21;;;;;;;19.17;4.93;;;;;;;14.35;63.08;101510.03;4953762;28;20179;-70
2021/11/18 07:54:46;;;;;;;13.43;4.17;;;;;;;14.45;62.32;101507.72;4952551;28;20590;-70
2021/11/18 07:57:11;;;;;;;18.93;4.60;;;;;;;14.75;61.85;101512.22;4952424;29;20190;-70
2021/11/18 07:59:37;;;;;;;16.77;4.50;;;;;;;14.67;61.81;101528.81;4953594;29;20583;-69
2021/11/18 08:02:04;;;;;;;19.57;4.63;;;;;;;14.37;62.24;101529.59;4953718;29;20233;-70
2021/11/18 08:04:29;;;;;;;18.47;5.03;;;;;;;14.86;61.89;101524.06;4952632;29;20545;-69
2021/11/18 08:06:56;;;;;;;15.70;4.67;;;;;;;14.74;61.82;101527.50;4954047;28;20278;-70
2021/11/18 08:09:22;;;;;;;16.63;4.37;;;;;;;14.91;61.47;101518.44;4954570;28;20171;-70
2021/11/18 08:11:52;;;;;;;19.37;3.90;;;;;;;15.10;61.12;101512.81;4952595;29;20189;-70
2021/11/18 08:14:19;;;;;;;11.90;4.33;;;;;;;14.82;61.84;101505.53;4952471;29;20198;-70
2021/11/18 08:16:45;;;;;;;19.67;4.10;;;;;;;15.44;60.70;101525.91;4987260;23;20231;-71
2021/11/18 08:19:10;;;;;;;20.97;4.33;;;;;;;15.55;60.41;101514.47;4936207;28;20179;-72
2021/11/18 08:21:36;;;;;;;14.03;3.60;;;;;;;15.23;61.29;101506.56;4952636;28;20540;-72
2021/11/18 08:24:04;;;;;;;11.63;3.67;;;;;;;15.22;61.21;101512.91;4952058;28;20231;-73
2021/11/18 08:26:30;;;;;;;13.37;3.73;;;;;;;15.13;61.13;101515.31;4932669;28;20196;-70
2021/11/18 08:28:56;;;;;;;14.30;3.93;;;;;;;15.66;60.23;101514.72;4917168;29;20176;-73
2021/11/18 08:31:22;;;;;;;15.67;4.67;;;;;;;15.64;60.28;101519.31;4933107;28;20276;-71
2021/11/18 08:33:48;;;;;;;14.27;4.00;;;;;;;15.16;61.17;101534.78;4948993;28;20167;-71
2021/11/18 08:36:13;;;;;;;17.83;4.90;;;;;;;15.20;61.00;101520.19;4932759;28;20206;-71
2021/11/18 08:38:40;;;;;;;18.03;4.60;;;;;;;15.50;61.04;101530.03;4917263;28;20176;-71
2021/11/18 08:41:08;;;;;;;16.13;4.13;;;;;;;16.07;59.97;101538.97;4933010;28;20180;-72
2021/11/18 08:43:36;;;;;;;14.53;4.00;;;;;;;15.99;60.36;101532.34;4932576;28;20200;-72
2021/11/18 08:46:04;;;;;;;18.43;5.00;;;;;;;15.89;60.57;101513.22;4948376;28;20239;-72
2021/11/18 08:48:31;;;;;;;20.53;4.13;;;;;;;15.81;60.35;101502.09;4932867;28;20233;-72
2021/11/18 08:50:57;;;;;;;24.33;4.43;;;;;;;15.52;60.71;101493.13;4932943;28;20180;-71
2021/11/18 08:53:26;;;;;;;23.63;4.63;;;;;;;15.88;60.44;101473.81;4933469;28;20172;-72
2021/11/18 08:55:51;;;;;;;15.10;4.70;;;;;;;15.49;60.83;101485.25;4932856;28;20261;-70
2021/11/18 08:58:20;;;;;;;25.30;4.90;;;;;;;15.92;60.60;101508.50;4933135;28;20175;-72
2021/11/18 09:00:50;;;;;;;19.87;5.57;;;;;;;15.45;61.72;101513.31;4932916;29;20179;-71
2021/11/18 09:03:18;;;;;;;16.17;4.83;;;;;;;15.33;61.74;101512.25;4933162;29;20677;-73
2021/11/18 09:05:43;;;;;;;19.03;5.53;;;;;;;15.26;61.78;101487.59;4949648;28;20281;-72
2021/11/18 09:08:08;;;;;;;17.27;5.33;;;;;;;15.78;60.56;101488.81;4917294;28;20184;-73
2021/11/18 09:10:35;;;;;;;15.50;5.10;;;;;;;16.08;59.98;101512.91;4932776;28;20192;-74
2021/11/18 09:13:00;;;;;;;17.10;5.93;;;;;;;15.51;61.25;101508.41;4948346;28;20171;-72
2021/11/18 09:15:27;;;;;;;17.27;4.80;;;;;;;16.53;58.95;101507.16;4932383;28;20270;-72
2021/11/18 09:17:54;;;;;;;14.60;4.33;;;;;;;16.44;58.98;101515.88;4948448;29;20200;-72
2021/11/18 09:20:21;;;;;;;17.50;4.97;;;;;;;16.51;59.20;101519.00;4932448;28;20188;-72
2021/11/18 09:22:47;;;;;;;21.77;5.60;;;;;;;16.26;59.50;101519.75;4916157;29;20212;-71
2021/11/18 09:25:15;;;;;;;15.97;4.80;;;;;;;16.29;59.85;101491.75;4948224;28;20670;-72
2021/11/18 09:27:47;;;;;;;18.50;5.50;;;;;;;16.49;59.10;101504.78;4948296;28;20518;-72
2021/11/18 09:30:18;;;;;;;21.17;5.03;;;;;;;15.85;60.77;101527.84;4916572;28;20542;-72
2021/11/18 09:32:43;;;;;;;18.33;5.20;;;;;;;16.10;59.85;101519.91;4932311;29;20173;-71
2021/11/18 09:35:11;;;;;;;17.17;4.90;;;;;;;16.27;59.76;101533.13;4932064;28;20646;-72
2021/11/18 09:37:36;;;;;;;19.57;5.00;;;;;;;16.36;59.67;101537.06;4931536;28;20204;-71
2021/11/18 09:40:05;;;;;;;19.80;4.87;;;;;;;16.40;60.05;101538.59;4933538;28;20671;-71
2021/11/18 09:42:43;;;;;;;21.57;5.13;;;;;;;16.95;58.83;101534.91;4931959;28;20182;-72
2021/11/18 09:45:15;;;;;;;15.87;4.83;;;;;;;15.97;61.13;101558.47;4932279;28;20196;-71
2021/11/18 09:48:18;;;;;;;19.03;4.87;;;;;;;16.41;60.24;101539.47;4932226;29;20168;-72
2021/11/18 09:50:58;;;;;;;19.30;5.20;;;;;;;16.15;61.13;101552.78;4933303;28;20173;-72
2021/11/18 09:53:47;;;;;;;19.73;5.73;;;;;;;16.06;61.01;101556.09;4916373;29;20165;-72
2021/11/18 09:57:05;;;;;;;26.57;6.00;;;;;;;16.94;58.67;101541.25;4932081;28;20210;-72
2021/11/18 09:59:52;;;;;;;20.10;5.30;;;;;;;16.98;58.73;101540.09;4998522;28;20219;-71
2021/11/18 10:02:45;;;;;;;20.70;4.73;;;;;;;17.06;58.51;101537.72;5015404;28;20574;-72
2021/11/18 10:05:15;;;;;;;17.23;5.07;;;;;;;17.44;57.76;101531.47;4941006;28;20645;-72
2021/11/18 10:07:44;;;;;;;19.00;4.73;;;;;;;17.01;59.26;101550.66;4935315;29;20187;-71
2021/11/18 10:10:24;;;;;;;19.67;5.60;;;;;;;16.57;59.86;101534.75;4957907;28;20213;-72
2021/11/18 10:13:22;;;;;;;17.07;5.27;;;;;;;17.46;58.35;101526.84;4932852;29;20643;-71
2021/11/18 10:15:53;;;;;;;20.53;5.23;;;;;;;17.10;58.86;101517.69;4931380;28;20210;-70
2021/11/18 10:18:25;;;;;;;18.93;5.20;;;;;;;16.98;59.37;101513.13;4931807;29;20178;-71
2021/11/18 10:20:57;;;;;;;23.13;4.90;;;;;;;17.48;58.20;101514.13;4932198;28;20550;-70
2021/11/18 10:23:24;;;;;;;17.70;5.23;;;;;;;17.85;57.55;101519.63;4947748;29;20202;-71
2021/11/18 10:26:12;;;;;;;20.30;5.47;;;;;;;18.00;57.50;101503.16;4947652;28;20286;-72
2021/11/18 10:28:44;;;;;;;21.57;6.20;;;;;;;17.68;57.93;101502.78;4931733;29;20251;-71
2021/11/18 10:31:17;;;;;;;20.23;5.17;;;;;;;17.67;57.98;101506.47;4916111;29;20206;-71
2021/11/18 10:33:52;;;;;;;21.83;4.63;;;;;;;18.35;56.91;101514.03;4937527;29;20172;-70
2021/11/18 10:36:33;;;;;;;20.87;5.30;;;;;;;17.54;57.92;101508.28;4951321;28;20209;-72
2021/11/18 10:39:17;;;;;;;19.23;5.80;;;;;;;17.04;58.66;101517.22;4949320;29;20261;-71
2021/11/18 10:41:55;;;;;;;23.43;5.50;;;;;;;16.94;59.09;101503.53;4932967;29;20175;-71
2021/11/18 10:44:24;;;;;;;21.23;4.57;;;;;;;17.37;58.68;101497.81;4931528;29;20204;-71
2021/11/18 10:47:02;;;;;;;14.57;4.83;;;;;;;18.33;57.15;101510.59;4932453;29;20625;-72
2021/11/18 10:49:35;;;;;;;21.50;5.30;;;;;;;17.72;57.99;101514.22;4950454;29;20174;-72
2021/11/18 10:52:03;;;;;;;22.27;5.03;;;;;;;17.80;57.56;101510.00;4935029;28;20179;-73
2021/11/18 10:54:44;;;;;;;24.50;5.43;;;;;;;17.52;58.75;101479.69;4919983;28;20179;-73
2021/11/18 10:57:18;;;;;;;21.30;5.20;;;;;;;17.60;58.25;101485.38;4934682;29;20203;-73
2021/11/18 10:59:48;;;;;;;23.87;5.70;;;;;;;17.12;59.29;101499.56;4935294;28;20178;-72
2021/11/18 11:02:24;;;;;;;27.10;5.50;;;;;;;17.10;59.83;101484.47;4950310;28;20183;-72
2021/11/18 11:04:54;;;;;;;20.97;5.97;;;;;;;16.60;60.27;101469.03;4934536;29;20252;-71
2021/11/18 11:07:31;;;;;;;23.07;4.87;;;;;;;16.73;60.74;101475.34;4934700;28;20192;-72
2021/11/18 11:09:57;;;;;;;21.87;5.70;;;;;;;16.39;61.04;101476.75;4934403;29;20541;-72
2021/11/18 11:12:44;;;;;;;23.87;5.57;;;;;;;17.59;59.15;101479.13;4934738;28;20190;-72
2021/11/18 11:15:28;;;;;;;21.87;4.37;;;;;;;16.90;59.16;101469.66;4934363;29;20198;-71
2021/11/18 11:18:16;;;;;;;17.77;5.23;;;;;;;17.11;59.25;101476.25;4951029;29;20190;-72
2021/11/18 11:21:00;;;;;;;23.97;5.60;;;;;;;16.71;59.84;101466.47;4951042;29;20185;-72